Hawley, Pennsylvania
Current Conditions -  °F | °C
As of 10:15 AM on Monday 24 Nov 2014 (Local Time) from KMSV Reporting Station
Overcast Overcast  
Wind Chill: 59°   Ceiling: 6500
Heat Index: 59°   Visibility: 10mi
Dew Point: 59°   Wind: 12mph
Humidity: 100%   Direction: 200°SSW
Pressure: 29.64"   Gusts: 20mph
Location:  41.48°N, 75.18°W
Report Text: KMSV 241515Z AUTO 20010G17KT 170V240 10SM OVC065 15/15 A2964 RMK AO1
Loading
Personal Weather Stations






























Interactive Weather Map New forecast layout! Learn more

10-Day Weather Forecast

Advertisements
Track Severe Weather on mobile